createdAt,value
2022-12-12T00:00:41.865Z,43.93
2022-12-12T00:03:09.316Z,46.85
2022-12-12T00:05:36.149Z,48.97
2022-12-12T00:08:02.835Z,47.00
2022-12-12T00:10:29.523Z,43.35
2022-12-12T00:12:56.137Z,51.07
2022-12-12T00:15:23.499Z,45.35
2022-12-12T00:17:50.182Z,48.42
2022-12-12T00:20:16.947Z,48.30
2022-12-12T00:22:43.644Z,45.10
2022-12-12T00:25:10.712Z,50.88
2022-12-12T00:27:37.943Z,52.83
2022-12-12T00:30:06.009Z,51.43
2022-12-12T00:32:33.481Z,46.47
2022-12-12T00:35:00.109Z,49.47
2022-12-12T00:37:26.711Z,51.20
2022-12-12T00:39:53.383Z,49.63
2022-12-12T00:42:19.975Z,50.33
2022-12-12T00:44:46.686Z,49.92
2022-12-12T00:47:13.330Z,50.78
2022-12-12T00:49:40.113Z,55.05
2022-12-12T00:52:06.765Z,49.38
2022-12-12T00:54:33.405Z,49.33
2022-12-12T00:56:59.983Z,50.03
2022-12-12T00:59:26.716Z,45.65
2022-12-12T01:01:53.446Z,50.13
2022-12-12T01:04:20.180Z,46.20
2022-12-12T01:06:46.803Z,50.88
2022-12-12T01:09:13.492Z,52.13
2022-12-12T01:11:40.118Z,51.65
2022-12-12T01:14:06.925Z,48.30
2022-12-12T01:16:33.700Z,51.33
2022-12-12T01:19:00.451Z,53.00
2022-12-12T01:21:27.448Z,52.88
2022-12-12T01:23:54.528Z,49.75
2022-12-12T01:26:23.566Z,49.63
2022-12-12T01:28:51.731Z,50.40
2022-12-12T01:31:18.589Z,47.40
2022-12-12T01:33:46.313Z,50.65
2022-12-12T01:36:16.455Z,47.05
2022-12-12T01:38:47.481Z,49.10
2022-12-12T01:41:15.981Z,60.05
2022-12-12T01:43:42.662Z,53.23
2022-12-12T01:46:28.183Z,50.97
2022-12-12T01:49:06.692Z,52.00
2022-12-12T01:51:34.102Z,45.77
2022-12-12T01:54:15.189Z,43.73
2022-12-12T01:56:44.386Z,52.57
2022-12-12T01:59:13.820Z,55.20
2022-12-12T02:01:40.874Z,37.95
2022-12-12T02:04:09.110Z,49.63
2022-12-12T02:06:35.926Z,57.07
2022-12-12T02:09:07.905Z,47.13
2022-12-12T02:11:37.903Z,45.83
2022-12-12T02:14:04.843Z,49.05
2022-12-12T02:16:56.770Z,47.58
2022-12-12T02:19:53.967Z,49.45
2022-12-12T02:22:32.417Z,46.33
2022-12-12T02:25:38.317Z,48.17
2022-12-12T02:28:37.926Z,50.80
2022-12-12T02:31:14.089Z,42.95
2022-12-12T02:34:18.080Z,55.83
2022-12-12T02:37:14.792Z,47.00
2022-12-12T02:39:47.903Z,51.50
2022-12-12T02:42:29.872Z,50.35
2022-12-12T02:45:02.338Z,45.20
2022-12-12T02:47:32.174Z,45.53
2022-12-12T02:50:27.068Z,43.50
2022-12-12T02:52:53.922Z,50.55
2022-12-12T02:55:20.680Z,46.33
2022-12-12T02:57:49.435Z,43.35
2022-12-12T03:00:18.171Z,46.85
2022-12-12T03:03:24.248Z,52.40
2022-12-12T03:06:47.826Z,46.28
2022-12-12T03:09:19.914Z,49.40
2022-12-12T03:12:08.125Z,47.30
2022-12-12T03:14:45.872Z,48.85
2022-12-12T03:17:52.802Z,48.10
2022-12-12T03:21:00.503Z,46.65
2022-12-12T03:23:40.149Z,54.72
2022-12-12T03:26:13.920Z,48.47
2022-12-12T03:29:02.810Z,49.20
2022-12-12T03:31:32.733Z,55.67
2022-12-12T03:34:04.637Z,50.30
2022-12-12T03:36:46.253Z,55.72
2022-12-12T03:39:24.479Z,60.75
2022-12-12T03:41:58.063Z,53.65
2022-12-12T03:44:43.452Z,54.40
2022-12-12T03:47:16.305Z,59.30
2022-12-12T03:49:55.673Z,57.58
2022-12-12T03:52:37.386Z,55.80
2022-12-12T03:55:12.620Z,51.53
2022-12-12T03:57:48.401Z,59.00
2022-12-12T04:00:16.140Z,63.67
2022-12-12T04:02:52.156Z,57.75
2022-12-12T04:05:28.486Z,57.22
2022-12-12T04:08:07.435Z,62.95
2022-12-12T04:11:03.243Z,60.88
2022-12-12T04:13:49.106Z,56.85
2022-12-12T04:16:21.490Z,51.97
2022-12-12T04:18:57.158Z,58.72
2022-12-12T04:22:16.693Z,53.60
2022-12-12T04:25:00.382Z,55.38
2022-12-12T04:27:37.368Z,48.15
2022-12-12T04:30:05.850Z,46.72
2022-12-12T04:33:09.334Z,51.97
2022-12-12T04:35:42.364Z,51.00
2022-12-12T04:38:13.270Z,45.72
2022-12-12T04:40:47.778Z,46.40
2022-12-12T04:43:35.728Z,47.58
2022-12-12T04:46:07.289Z,42.65
2022-12-12T04:48:58.997Z,43.03
2022-12-12T04:51:31.306Z,46.58
2022-12-12T04:54:05.803Z,43.83
2022-12-12T04:56:35.856Z,38.30
2022-12-12T04:59:03.742Z,44.95
2022-12-12T05:01:55.160Z,38.70
2022-12-12T05:04:31.123Z,39.53
2022-12-12T05:07:04.711Z,41.92
2022-12-12T05:09:31.468Z,44.72
2022-12-12T05:11:58.242Z,42.30
2022-12-12T05:14:24.835Z,37.95
2022-12-12T05:16:58.827Z,38.60
2022-12-12T05:19:25.529Z,41.35
2022-12-12T05:21:52.132Z,34.97
2022-12-12T05:24:18.719Z,37.25
2022-12-12T05:26:45.359Z,33.97
2022-12-12T05:29:11.946Z,37.80
2022-12-12T05:31:38.523Z,33.47
2022-12-12T05:34:05.407Z,39.53
2022-12-12T05:36:32.324Z,35.42
2022-12-12T05:38:58.904Z,34.17
2022-12-12T05:41:25.515Z,30.80
2022-12-12T05:43:52.350Z,34.22
2022-12-12T05:46:18.983Z,30.05
2022-12-12T05:48:50.389Z,30.80
2022-12-12T05:51:20.500Z,33.35
2022-12-12T05:56:14.197Z,33.28
2022-12-12T05:58:41.177Z,37.05
2022-12-12T06:01:08.283Z,34.33
2022-12-12T06:03:35.453Z,27.85
2022-12-12T06:06:02.143Z,33.80
2022-12-12T06:08:29.170Z,32.63
2022-12-12T06:10:55.783Z,36.00
2022-12-12T06:13:22.428Z,29.40
2022-12-12T06:15:49.066Z,32.97
2022-12-12T06:18:15.925Z,39.28
2022-12-12T06:20:42.516Z,29.70
2022-12-12T06:23:09.098Z,23.63
2022-12-12T06:25:35.999Z,37.28
2022-12-12T06:28:02.634Z,28.17
2022-12-12T06:30:29.271Z,22.98
2022-12-12T06:32:56.191Z,23.55
2022-12-12T06:35:23.030Z,23.58
2022-12-12T06:37:49.659Z,27.35
2022-12-12T06:40:17.104Z,23.35
2022-12-12T06:42:48.242Z,23.17
2022-12-12T06:45:16.061Z,22.15
2022-12-12T06:47:42.850Z,18.65
2022-12-12T06:50:09.832Z,17.85
2022-12-12T06:52:36.561Z,17.25
2022-12-12T06:55:03.755Z,16.08
2022-12-12T06:57:30.536Z,14.88
2022-12-12T06:59:57.237Z,15.25
2022-12-12T07:02:29.643Z,16.30
2022-12-12T07:04:57.745Z,17.33
2022-12-12T07:07:24.753Z,13.07
2022-12-12T07:09:51.466Z,15.82
2022-12-12T07:12:18.137Z,13.82
2022-12-12T07:14:44.757Z,12.82
2022-12-12T07:17:11.492Z,15.48
2022-12-12T07:19:38.272Z,15.70
2022-12-12T07:22:09.824Z,16.50
2022-12-12T07:24:37.724Z,20.73
2022-12-12T07:27:04.737Z,20.10
2022-12-12T07:29:31.355Z,12.80
2022-12-12T07:31:58.387Z,13.27
2022-12-12T07:34:25.263Z,13.98
2022-12-12T07:36:51.964Z,11.23
2022-12-12T07:39:20.934Z,18.92
2022-12-12T07:41:48.351Z,16.50
2022-12-12T07:44:16.225Z,15.20
2022-12-12T07:46:43.037Z,12.50
2022-12-12T07:49:09.799Z,14.30
2022-12-12T07:51:36.663Z,11.73
2022-12-12T07:54:03.356Z,12.80
2022-12-12T07:56:30.137Z,19.23
2022-12-12T07:58:56.823Z,13.02
2022-12-12T08:01:27.828Z,23.52
2022-12-12T08:03:54.676Z,20.67
2022-12-12T08:06:22.695Z,24.15
2022-12-12T08:08:50.304Z,16.92
2022-12-12T08:11:20.519Z,13.85
2022-12-12T08:13:47.687Z,12.63
2022-12-12T08:16:18.449Z,15.52
2022-12-12T08:18:46.054Z,13.23
2022-12-12T08:21:15.211Z,11.77
2022-12-12T08:23:44.232Z,15.07
2022-12-12T08:26:13.919Z,13.75
2022-12-12T08:28:41.691Z,9.95
2022-12-12T08:31:08.873Z,14.80
2022-12-12T08:33:35.965Z,12.38
2022-12-12T08:36:21.514Z,11.18
2022-12-12T08:38:48.803Z,9.77
2022-12-12T08:41:16.342Z,11.82
2022-12-12T08:43:44.463Z,11.80
2022-12-12T08:46:17.497Z,12.70
2022-12-12T08:48:48.692Z,11.35
2022-12-12T08:51:16.895Z,13.45
2022-12-12T08:53:45.756Z,10.80
2022-12-12T08:56:12.668Z,11.65
2022-12-12T08:58:39.574Z,13.23
2022-12-12T09:01:18.349Z,10.35
2022-12-12T09:03:45.294Z,12.05
2022-12-12T09:06:12.803Z,10.90
2022-12-12T09:08:39.715Z,14.50
2022-12-12T09:11:07.192Z,12.25
2022-12-12T09:13:34.300Z,11.93
2022-12-12T09:16:01.167Z,10.00
2022-12-12T09:18:28.063Z,12.07
2022-12-12T09:20:57.658Z,13.55
2022-12-12T09:23:26.286Z,9.23
2022-12-12T09:25:54.020Z,11.82
2022-12-12T09:28:22.508Z,12.07
2022-12-12T09:30:49.373Z,12.27
2022-12-12T09:33:17.280Z,13.38
2022-12-12T09:35:44.503Z,10.90
2022-12-12T09:38:14.542Z,11.95
2022-12-12T09:40:53.923Z,10.35
2022-12-12T09:43:29.431Z,10.93
2022-12-12T09:45:56.952Z,10.35
2022-12-12T09:48:38.099Z,9.82
2022-12-12T09:51:05.031Z,10.80
2022-12-12T09:53:32.157Z,13.30
2022-12-12T09:56:17.113Z,9.00
2022-12-12T09:58:56.964Z,11.05
2022-12-12T10:04:35.022Z,12.18
2022-12-12T10:07:10.199Z,9.48
2022-12-12T10:10:10.745Z,7.38
2022-12-12T10:12:38.422Z,9.70
2022-12-12T10:15:13.336Z,8.85
2022-12-12T10:17:43.964Z,11.70
2022-12-12T10:20:25.950Z,9.48
2022-12-12T10:23:16.485Z,9.18
2022-12-12T10:26:03.157Z,9.63
2022-12-12T10:28:32.145Z,9.18
2022-12-12T10:31:30.923Z,10.40
2022-12-12T10:34:24.314Z,8.80
2022-12-12T10:37:26.607Z,10.63
2022-12-12T10:40:27.947Z,9.32
2022-12-12T10:43:22.514Z,8.23
2022-12-12T10:46:16.431Z,8.48
2022-12-12T10:48:44.292Z,11.02
2022-12-12T10:51:13.896Z,10.80
2022-12-12T10:53:42.060Z,8.63
2022-12-12T10:56:13.272Z,7.50
2022-12-12T10:58:42.924Z,9.52
2022-12-12T11:01:33.048Z,7.95
2022-12-12T11:04:06.336Z,7.47
2022-12-12T11:06:45.844Z,8.77
2022-12-12T11:09:25.577Z,7.07
2022-12-12T11:12:13.785Z,8.25
2022-12-12T11:14:47.421Z,8.20
2022-12-12T11:17:41.878Z,8.80
2022-12-12T11:20:16.457Z,9.05
2022-12-12T11:22:43.464Z,11.38
2022-12-12T11:25:31.660Z,10.13
2022-12-12T11:28:06.671Z,6.88
2022-12-12T11:30:33.768Z,9.13
2022-12-12T11:33:01.478Z,6.78
2022-12-12T11:35:36.673Z,6.60
2022-12-12T11:38:17.572Z,6.93
2022-12-12T11:40:45.404Z,6.22
2022-12-12T11:43:27.699Z,6.57
2022-12-12T11:46:08.216Z,6.03
2022-12-12T11:48:44.579Z,7.00
2022-12-12T11:51:11.580Z,9.52
2022-12-12T11:53:41.387Z,5.97
2022-12-12T11:56:17.392Z,5.03
2022-12-12T11:58:59.141Z,5.43
2022-12-12T12:01:47.771Z,7.40
2022-12-12T12:04:53.616Z,6.97
2022-12-12T12:07:49.465Z,6.03
2022-12-12T12:10:45.180Z,6.25
2022-12-12T12:13:41.281Z,7.80
2022-12-12T12:16:36.468Z,7.35
2022-12-12T12:19:11.555Z,7.10
2022-12-12T12:21:52.986Z,7.38
2022-12-12T12:25:04.011Z,7.70
2022-12-12T12:28:07.852Z,5.07
2022-12-12T12:31:05.591Z,6.88
2022-12-12T12:33:58.154Z,10.00
2022-12-12T12:36:39.238Z,8.23
2022-12-12T12:39:21.923Z,9.45
2022-12-12T12:42:12.199Z,6.47
2022-12-12T12:45:17.217Z,10.65
2022-12-12T12:47:53.037Z,8.43
2022-12-12T12:50:25.230Z,10.95
2022-12-12T12:52:58.006Z,8.07
2022-12-12T12:55:29.841Z,11.10
2022-12-12T12:57:56.625Z,10.53
2022-12-12T13:00:26.987Z,12.90
2022-12-12T13:03:06.180Z,12.53
2022-12-12T13:05:54.731Z,12.48
2022-12-12T13:08:31.516Z,12.50
2022-12-12T13:11:10.515Z,13.07
2022-12-12T13:13:41.808Z,13.40
2022-12-12T13:16:14.283Z,13.90
2022-12-12T13:18:45.355Z,11.70
2022-12-12T13:21:44.026Z,10.70
2022-12-12T13:24:25.387Z,14.53
2022-12-12T13:27:13.175Z,9.23
2022-12-12T13:30:01.652Z,8.97
2022-12-12T13:33:00.625Z,9.53
2022-12-12T13:35:47.339Z,8.07
2022-12-12T13:38:32.638Z,7.50
2022-12-12T13:41:01.920Z,7.97
2022-12-12T13:43:33.111Z,6.10
2022-12-12T13:46:28.886Z,7.47
2022-12-12T13:49:14.469Z,8.20
2022-12-12T13:51:43.328Z,9.10
2022-12-12T13:54:13.754Z,5.70
2022-12-12T13:56:46.896Z,6.87
2022-12-12T13:59:22.551Z,6.67
2022-12-12T14:01:58.344Z,6.60
2022-12-12T14:04:36.860Z,7.67
2022-12-12T14:07:17.473Z,8.67
2022-12-12T14:09:49.539Z,9.00
2022-12-12T14:12:20.040Z,7.53
2022-12-12T14:14:59.313Z,8.27
2022-12-12T14:17:29.144Z,7.18
2022-12-12T14:19:58.808Z,8.95
2022-12-12T14:22:29.815Z,8.57
2022-12-12T14:25:11.733Z,8.43
2022-12-12T14:28:02.709Z,10.90
2022-12-12T14:30:43.351Z,10.37
2022-12-12T14:33:16.163Z,8.40
2022-12-12T14:35:56.884Z,7.82
2022-12-12T14:38:49.093Z,8.33
2022-12-12T14:41:22.879Z,6.43
2022-12-12T14:44:35.471Z,7.60
2022-12-12T14:46:44.427Z,8.27
2022-12-12T14:49:18.160Z,8.33
2022-12-12T14:51:49.341Z,6.73
2022-12-12T14:54:18.628Z,10.23
2022-12-12T14:56:52.715Z,8.18
2022-12-12T14:59:36.340Z,8.07
2022-12-12T15:02:17.897Z,8.37
2022-12-12T15:04:49.519Z,7.57
2022-12-12T15:07:25.630Z,10.65
2022-12-12T15:09:52.504Z,8.95
2022-12-12T15:12:25.087Z,6.70
2022-12-12T15:14:57.326Z,8.10
2022-12-12T15:17:35.939Z,8.00
2022-12-12T15:20:08.497Z,9.23
2022-12-12T15:22:37.897Z,10.07
2022-12-12T15:25:19.449Z,8.45
2022-12-12T15:27:55.280Z,8.77
2022-12-12T15:30:33.165Z,8.40
2022-12-12T15:33:01.564Z,7.57
2022-12-12T15:35:29.115Z,9.37
2022-12-12T15:38:05.707Z,7.43
2022-12-12T15:40:37.426Z,10.27
2022-12-12T15:43:20.540Z,12.23
2022-12-12T15:45:53.584Z,9.63
2022-12-12T15:48:20.358Z,9.73
2022-12-12T15:50:50.835Z,8.87
2022-12-12T15:53:48.175Z,10.03
2022-12-12T15:56:28.750Z,13.37
2022-12-12T15:59:16.253Z,11.70
2022-12-12T16:01:43.238Z,7.63
2022-12-12T16:04:10.029Z,8.77
2022-12-12T16:06:40.672Z,10.90
2022-12-12T16:09:07.250Z,10.40
2022-12-12T16:11:45.708Z,10.20
2022-12-12T16:14:40.663Z,10.43
2022-12-12T16:17:11.285Z,10.93
2022-12-12T16:20:01.527Z,9.15
2022-12-12T16:22:49.185Z,9.33
2022-12-12T16:25:24.147Z,10.13
2022-12-12T16:28:18.972Z,10.00
2022-12-12T16:30:56.573Z,10.53
2022-12-12T16:33:33.174Z,15.73
2022-12-12T16:36:03.054Z,13.07
2022-12-12T16:38:30.489Z,16.00
2022-12-12T16:41:00.359Z,16.27
2022-12-12T16:43:27.544Z,15.15
2022-12-12T16:45:55.565Z,15.87
2022-12-12T16:48:23.598Z,16.03
2022-12-12T16:50:52.489Z,15.10
2022-12-12T16:53:20.105Z,16.73
2022-12-12T16:55:50.516Z,20.23
2022-12-12T16:58:18.025Z,18.53
2022-12-12T17:00:45.433Z,17.47
2022-12-12T17:03:14.549Z,14.37
2022-12-12T17:05:42.321Z,13.87
2022-12-12T17:08:09.229Z,16.13
2022-12-12T17:10:36.580Z,13.60
2022-12-12T17:13:07.680Z,13.73
2022-12-12T17:15:34.770Z,13.10
2022-12-12T17:18:01.977Z,14.33
2022-12-12T17:20:37.670Z,13.70
2022-12-12T17:25:50.660Z,15.40
2022-12-12T17:28:19.273Z,16.03
2022-12-12T17:30:47.973Z,14.37
2022-12-12T17:33:17.422Z,14.50
2022-12-12T17:35:44.655Z,15.02
2022-12-12T17:38:16.200Z,15.33
2022-12-12T17:40:44.125Z,12.87
2022-12-12T17:43:10.902Z,15.33
2022-12-12T17:45:37.696Z,14.07
2022-12-12T17:48:05.090Z,12.97
2022-12-12T17:50:34.916Z,16.63
2022-12-12T17:53:03.799Z,12.33
2022-12-12T17:55:55.340Z,14.13
2022-12-12T17:58:17.291Z,15.87
2022-12-12T18:00:45.444Z,16.27
2022-12-12T18:03:12.126Z,14.97
2022-12-12T18:05:38.874Z,12.60
2022-12-12T18:08:06.375Z,14.43
2022-12-12T18:10:33.019Z,14.13
2022-12-12T18:12:59.701Z,16.27
2022-12-12T18:15:26.676Z,13.10
2022-12-12T18:17:53.467Z,14.17
2022-12-12T18:20:26.678Z,14.10
2022-12-12T18:22:56.258Z,12.63
2022-12-12T18:25:22.938Z,11.63
2022-12-12T18:27:49.774Z,13.63
2022-12-12T18:30:17.048Z,13.37
2022-12-12T18:32:44.192Z,12.87
2022-12-12T18:35:10.910Z,10.50
2022-12-12T18:37:39.020Z,11.13
2022-12-12T18:40:09.296Z,12.67
2022-12-12T18:42:35.957Z,13.47
2022-12-12T18:45:02.684Z,12.17
2022-12-12T18:47:30.680Z,11.27
2022-12-12T18:49:57.366Z,12.40
2022-12-12T18:52:23.976Z,11.90
2022-12-12T18:54:52.057Z,11.47
2022-12-12T18:57:18.853Z,10.23
2022-12-12T18:59:45.576Z,12.80
2022-12-12T19:02:13.719Z,10.87
2022-12-12T19:04:42.116Z,11.20
2022-12-12T19:07:08.708Z,10.97
2022-12-12T19:09:35.392Z,10.20
2022-12-12T19:12:02.876Z,10.30
2022-12-12T19:14:46.035Z,12.20
2022-12-12T19:17:18.419Z,19.40
2022-12-12T19:19:50.466Z,10.43
2022-12-12T19:22:43.891Z,8.97
2022-12-12T19:25:04.303Z,7.73
2022-12-12T19:27:31.597Z,9.30
2022-12-12T19:29:58.211Z,13.77
2022-12-12T19:32:24.854Z,16.60
2022-12-12T19:34:51.573Z,11.20
2022-12-12T19:37:18.229Z,8.47
2022-12-12T19:39:44.858Z,9.63
2022-12-12T19:42:11.662Z,10.13
2022-12-12T19:44:43.146Z,7.53
2022-12-12T19:47:10.266Z,6.80
2022-12-12T19:49:37.026Z,7.30
2022-12-12T19:52:04.568Z,9.70
2022-12-12T19:54:33.422Z,9.32
2022-12-12T19:57:00.225Z,7.67
2022-12-12T19:59:26.875Z,9.53
2022-12-12T20:01:54.587Z,7.50
2022-12-12T20:04:26.027Z,7.07
2022-12-12T20:06:53.220Z,7.63
2022-12-12T20:09:22.369Z,7.27
2022-12-12T20:11:49.062Z,6.55
2022-12-12T20:14:18.576Z,6.37
2022-12-12T20:16:45.351Z,6.20
2022-12-12T20:19:13.308Z,7.83
2022-12-12T20:22:00.287Z,8.37
2022-12-12T20:24:28.877Z,6.13
2022-12-12T20:26:56.033Z,7.33
2022-12-12T20:29:23.500Z,10.53
2022-12-12T20:31:50.654Z,7.60
2022-12-12T20:34:21.556Z,6.73
2022-12-12T20:36:48.403Z,8.63
2022-12-12T20:39:16.571Z,7.70
2022-12-12T20:41:44.330Z,7.47
2022-12-12T20:44:13.139Z,9.63
2022-12-12T20:46:42.229Z,12.17
2022-12-12T20:49:12.925Z,8.90
2022-12-12T20:51:56.891Z,12.50
2022-12-12T20:54:25.744Z,12.33
2022-12-12T20:56:53.632Z,10.73
2022-12-12T20:59:20.309Z,9.10
2022-12-12T21:01:47.598Z,9.20
2022-12-12T21:04:15.144Z,11.03
2022-12-12T21:06:51.624Z,9.93
2022-12-12T21:09:24.849Z,12.30
2022-12-12T21:11:54.350Z,15.80
2022-12-12T21:14:21.500Z,11.83
2022-12-12T21:16:48.532Z,10.87
2022-12-12T21:19:18.998Z,12.13
2022-12-12T21:21:46.335Z,10.53
2022-12-12T21:24:14.853Z,12.37
2022-12-12T21:26:42.052Z,13.63
2022-12-12T21:29:09.327Z,11.80
2022-12-12T21:31:38.644Z,10.87
2022-12-12T21:34:06.364Z,13.25
2022-12-12T21:36:33.905Z,12.87
2022-12-12T21:39:02.819Z,11.57
2022-12-12T21:41:29.508Z,13.20
2022-12-12T21:43:59.339Z,14.77
2022-12-12T21:46:27.446Z,10.38
2022-12-12T21:49:13.372Z,10.97
2022-12-12T21:51:43.949Z,12.33
2022-12-12T21:54:12.423Z,20.97
2022-12-12T21:56:39.782Z,26.17
2022-12-12T21:59:07.223Z,25.73
2022-12-12T22:01:34.423Z,23.10
2022-12-12T22:04:01.903Z,18.80
2022-12-12T22:06:31.124Z,13.80
2022-12-12T22:08:59.291Z,14.43
2022-12-12T22:11:40.545Z,13.50
2022-12-12T22:14:15.856Z,17.23
2022-12-12T22:16:42.541Z,19.60
2022-12-12T22:19:12.359Z,13.33
2022-12-12T22:21:39.372Z,17.52
2022-12-12T22:24:06.481Z,15.03
2022-12-12T22:26:36.605Z,15.77
2022-12-12T22:29:05.932Z,22.27
2022-12-12T22:31:35.568Z,17.85
2022-12-12T22:34:06.382Z,15.65
2022-12-12T22:36:35.808Z,13.27
2022-12-12T22:39:04.087Z,13.32
2022-12-12T22:41:30.660Z,11.57
2022-12-12T22:44:02.880Z,14.83
2022-12-12T22:46:29.650Z,13.67
2022-12-12T22:48:59.228Z,12.53
2022-12-12T22:51:31.392Z,12.27
2022-12-12T22:54:01.413Z,11.80
2022-12-12T22:56:29.153Z,12.30
2022-12-12T22:58:56.207Z,15.27
2022-12-12T23:01:24.425Z,12.93
2022-12-12T23:03:51.920Z,13.43
2022-12-12T23:06:24.272Z,13.43
2022-12-12T23:08:56.511Z,13.97
2022-12-12T23:11:25.352Z,13.13
2022-12-12T23:13:55.866Z,13.27
2022-12-12T23:16:27.500Z,14.80
2022-12-12T23:18:54.496Z,16.97
2022-12-12T23:21:23.224Z,15.60
2022-12-12T23:23:50.412Z,14.33
2022-12-12T23:26:20.137Z,13.83
2022-12-12T23:28:47.284Z,14.82
2022-12-12T23:31:18.693Z,16.70
2022-12-12T23:33:46.340Z,14.93
2022-12-12T23:36:15.511Z,17.20
2022-12-12T23:38:42.672Z,14.25
2022-12-12T23:41:13.474Z,17.67
2022-12-12T23:43:40.751Z,15.18
2022-12-12T23:46:28.111Z,15.95
2022-12-12T23:49:06.921Z,15.98
2022-12-12T23:51:39.734Z,17.90
2022-12-12T23:54:09.299Z,15.48
2022-12-12T23:56:36.492Z,15.15
2022-12-12T23:59:03.322Z,16.63
